sensor_id;sensor_type;location;lat;lon;timestamp;temperature;humidity
69084;SHT31;56185;48.526;9.044;2023-03-19T00:01:11;10.17;66.27
69084;SHT31;56185;48.526;9.044;2023-03-19T00:03:37;10.15;66.06
69084;SHT31;56185;48.526;9.044;2023-03-19T00:06:02;10.21;66.05
69084;SHT31;56185;48.526;9.044;2023-03-19T00:08:27;10.02;66.79
69084;SHT31;56185;48.526;9.044;2023-03-19T00:10:53;10.12;66.18
69084;SHT31;56185;48.526;9.044;2023-03-19T00:13:19;10.10;66.64
69084;SHT31;56185;48.526;9.044;2023-03-19T00:15:44;10.15;66.29
69084;SHT31;56185;48.526;9.044;2023-03-19T00:18:10;9.95;67.80
69084;SHT31;56185;48.526;9.044;2023-03-19T00:20:35;10.02;67.18
69084;SHT31;56185;48.526;9.044;2023-03-19T00:23:00;10.08;66.33
69084;SHT31;56185;48.526;9.044;2023-03-19T00:25:26;9.94;65.94
69084;SHT31;56185;48.526;9.044;2023-03-19T00:27:51;9.90;65.93
69084;SHT31;56185;48.526;9.044;2023-03-19T00:30:17;9.90;66.35
69084;SHT31;56185;48.526;9.044;2023-03-19T00:32:42;9.77;67.06
69084;SHT31;56185;48.526;9.044;2023-03-19T00:35:08;9.90;66.32
69084;SHT31;56185;48.526;9.044;2023-03-19T00:37:34;9.90;66.32
69084;SHT31;56185;48.526;9.044;2023-03-19T00:39:59;9.77;66.54
69084;SHT31;56185;48.526;9.044;2023-03-19T00:42:25;9.81;66.46
69084;SHT31;56185;48.526;9.044;2023-03-19T00:44:50;9.97;66.23
69084;SHT31;56185;48.526;9.044;2023-03-19T00:47:15;10.02;66.01
69084;SHT31;56185;48.526;9.044;2023-03-19T00:49:41;10.02;67.22
69084;SHT31;56185;48.526;9.044;2023-03-19T00:52:06;10.12;66.80
69084;SHT31;56185;48.526;9.044;2023-03-19T00:54:31;10.18;66.68
69084;SHT31;56185;48.526;9.044;2023-03-19T00:56:57;10.28;66.18
69084;SHT31;56185;48.526;9.044;2023-03-19T00:59:23;10.20;66.89
69084;SHT31;56185;48.526;9.044;2023-03-19T01:01:48;10.25;66.91
69084;SHT31;56185;48.526;9.044;2023-03-19T01:04:13;10.39;66.55
69084;SHT31;56185;48.526;9.044;2023-03-19T01:06:38;10.44;65.81
69084;SHT31;56185;48.526;9.044;2023-03-19T01:09:04;10.32;65.01
69084;SHT31;56185;48.526;9.044;2023-03-19T01:11:29;10.38;64.72
69084;SHT31;56185;48.526;9.044;2023-03-19T01:13:54;10.27;63.77
69084;SHT31;56185;48.526;9.044;2023-03-19T01:16:20;10.21;63.49
69084;SHT31;56185;48.526;9.044;2023-03-19T01:18:45;10.28;65.03
69084;SHT31;56185;48.526;9.044;2023-03-19T01:21:10;10.38;67.59
69084;SHT31;56185;48.526;9.044;2023-03-19T01:23:35;10.20;68.48
69084;SHT31;56185;48.526;9.044;2023-03-19T01:26:01;10.27;70.21
69084;SHT31;56185;48.526;9.044;2023-03-19T01:28:26;10.37;70.00
69084;SHT31;56185;48.526;9.044;2023-03-19T01:30:51;10.21;70.67
69084;SHT31;56185;48.526;9.044;2023-03-19T01:33:17;10.01;73.30
69084;SHT31;56185;48.526;9.044;2023-03-19T01:35:44;10.11;72.42
69084;SHT31;56185;48.526;9.044;2023-03-19T01:38:09;10.28;71.31
69084;SHT31;56185;48.526;9.044;2023-03-19T01:40:35;10.10;71.93
69084;SHT31;56185;48.526;9.044;2023-03-19T01:43:20;10.34;73.00
69084;SHT31;56185;48.526;9.044;2023-03-19T01:45:49;10.18;72.27
69084;SHT31;56185;48.526;9.044;2023-03-19T01:48:19;10.08;73.31
69084;SHT31;56185;48.526;9.044;2023-03-19T01:50:45;10.04;74.95
69084;SHT31;56185;48.526;9.044;2023-03-19T01:53:13;10.11;73.84
69084;SHT31;56185;48.526;9.044;2023-03-19T01:55:39;10.07;73.19
69084;SHT31;56185;48.526;9.044;2023-03-19T01:58:05;10.05;74.55
69084;SHT31;56185;48.526;9.044;2023-03-19T02:00:33;10.07;74.75
69084;SHT31;56185;48.526;9.044;2023-03-19T02:12:17;9.80;80.76
69084;SHT31;56185;48.526;9.044;2023-03-19T02:14:42;9.36;81.47
69084;SHT31;56185;48.526;9.044;2023-03-19T02:17:08;9.66;80.42
69084;SHT31;56185;48.526;9.044;2023-03-19T02:22:03;9.67;80.10
69084;SHT31;56185;48.526;9.044;2023-03-19T02:24:34;9.57;80.76
69084;SHT31;56185;48.526;9.044;2023-03-19T02:27:01;9.46;80.93
69084;SHT31;56185;48.526;9.044;2023-03-19T02:29:26;9.47;80.27
69084;SHT31;56185;48.526;9.044;2023-03-19T02:31:52;9.62;80.98
69084;SHT31;56185;48.526;9.044;2023-03-19T02:36:49;9.42;80.53
69084;SHT31;56185;48.526;9.044;2023-03-19T02:39:25;9.44;80.43
69084;SHT31;56185;48.526;9.044;2023-03-19T02:41:53;9.23;82.01
69084;SHT31;56185;48.526;9.044;2023-03-19T02:44:19;9.22;82.18
69084;SHT31;56185;48.526;9.044;2023-03-19T02:46:44;9.16;82.27
69084;SHT31;56185;48.526;9.044;2023-03-19T02:49:11;9.19;81.90
69084;SHT31;56185;48.526;9.044;2023-03-19T02:51:36;9.07;83.59
69084;SHT31;56185;48.526;9.044;2023-03-19T02:54:02;9.10;83.70
69084;SHT31;56185;48.526;9.044;2023-03-19T02:56:28;9.16;83.38
69084;SHT31;56185;48.526;9.044;2023-03-19T02:58:54;9.25;83.49
69084;SHT31;56185;48.526;9.044;2023-03-19T03:01:20;9.25;83.18
69084;SHT31;56185;48.526;9.044;2023-03-19T03:03:47;9.15;83.32
69084;SHT31;56185;48.526;9.044;2023-03-19T03:06:12;9.12;83.67
69084;SHT31;56185;48.526;9.044;2023-03-19T03:08:38;9.31;82.02
69084;SHT31;56185;48.526;9.044;2023-03-19T03:11:03;9.36;82.00
69084;SHT31;56185;48.526;9.044;2023-03-19T03:13:28;9.57;81.22
69084;SHT31;56185;48.526;9.044;2023-03-19T03:15:54;9.40;81.49
69084;SHT31;56185;48.526;9.044;2023-03-19T03:18:19;9.35;82.66
69084;SHT31;56185;48.526;9.044;2023-03-19T03:20:44;9.25;83.29
69084;SHT31;56185;48.526;9.044;2023-03-19T03:23:10;9.12;83.83
69084;SHT31;56185;48.526;9.044;2023-03-19T03:25:35;9.15;83.55
69084;SHT31;56185;48.526;9.044;2023-03-19T03:28:00;8.97;84.26
69084;SHT31;56185;48.526;9.044;2023-03-19T03:30:25;9.07;83.33
69084;SHT31;56185;48.526;9.044;2023-03-19T03:32:50;9.11;84.48
69084;SHT31;56185;48.526;9.044;2023-03-19T03:35:16;9.16;84.45
69084;SHT31;56185;48.526;9.044;2023-03-19T03:37:41;9.31;83.36
69084;SHT31;56185;48.526;9.044;2023-03-19T03:40:07;9.31;83.04
69084;SHT31;56185;48.526;9.044;2023-03-19T03:42:33;9.23;83.41
69084;SHT31;56185;48.526;9.044;2023-03-19T03:44:59;9.23;84.33
69084;SHT31;56185;48.526;9.044;2023-03-19T03:47:24;9.18;83.78
69084;SHT31;56185;48.526;9.044;2023-03-19T03:49:49;9.15;83.86
69084;SHT31;56185;48.526;9.044;2023-03-19T03:52:14;9.25;83.19
69084;SHT31;56185;48.526;9.044;2023-03-19T03:54:40;9.07;84.13
69084;SHT31;56185;48.526;9.044;2023-03-19T03:57:06;9.07;84.14
69084;SHT31;56185;48.526;9.044;2023-03-19T03:59:31;9.11;84.03
69084;SHT31;56185;48.526;9.044;2023-03-19T04:01:57;9.18;83.91
69084;SHT31;56185;48.526;9.044;2023-03-19T04:04:22;9.16;83.87
69084;SHT31;56185;48.526;9.044;2023-03-19T04:06:47;9.23;83.33
69084;SHT31;56185;48.526;9.044;2023-03-19T04:09:12;9.31;83.25
69084;SHT31;56185;48.526;9.044;2023-03-19T04:11:39;9.33;83.38
69084;SHT31;56185;48.526;9.044;2023-03-19T04:14:05;9.35;83.51
69084;SHT31;56185;48.526;9.044;2023-03-19T04:16:30;9.21;84.22
69084;SHT31;56185;48.526;9.044;2023-03-19T04:18:56;9.29;83.76
69084;SHT31;56185;48.526;9.044;2023-03-19T04:21:21;9.22;83.91
69084;SHT31;56185;48.526;9.044;2023-03-19T04:23:47;9.23;84.25
69084;SHT31;56185;48.526;9.044;2023-03-19T04:26:12;9.28;84.02
69084;SHT31;56185;48.526;9.044;2023-03-19T04:28:37;9.38;83.99
69084;SHT31;56185;48.526;9.044;2023-03-19T04:31:05;9.25;84.63
69084;SHT31;56185;48.526;9.044;2023-03-19T04:33:31;9.26;84.32
69084;SHT31;56185;48.526;9.044;2023-03-19T04:35:56;9.32;84.36
69084;SHT31;56185;48.526;9.044;2023-03-19T04:38:22;9.19;84.96
69084;SHT31;56185;48.526;9.044;2023-03-19T04:40:48;9.33;83.91
69084;SHT31;56185;48.526;9.044;2023-03-19T04:43:14;9.49;83.58
69084;SHT31;56185;48.526;9.044;2023-03-19T04:45:39;9.44;83.44
69084;SHT31;56185;48.526;9.044;2023-03-19T04:48:04;9.44;82.72
69084;SHT31;56185;48.526;9.044;2023-03-19T04:50:30;9.39;83.04
69084;SHT31;56185;48.526;9.044;2023-03-19T04:52:55;9.31;83.46
69084;SHT31;56185;48.526;9.044;2023-03-19T04:55:20;9.19;84.58
69084;SHT31;56185;48.526;9.044;2023-03-19T04:57:45;9.15;84.82
69084;SHT31;56185;48.526;9.044;2023-03-19T05:00:11;9.21;84.74
69084;SHT31;56185;48.526;9.044;2023-03-19T05:02:37;9.28;83.53
69084;SHT31;56185;48.526;9.044;2023-03-19T05:05:02;9.31;84.25
69084;SHT31;56185;48.526;9.044;2023-03-19T05:07:27;9.23;84.45
69084;SHT31;56185;48.526;9.044;2023-03-19T05:09:52;9.22;84.67
69084;SHT31;56185;48.526;9.044;2023-03-19T05:12:18;9.29;84.52
69084;SHT31;56185;48.526;9.044;2023-03-19T05:14:43;9.39;83.97
69084;SHT31;56185;48.526;9.044;2023-03-19T05:17:08;9.31;83.70
69084;SHT31;56185;48.526;9.044;2023-03-19T05:19:34;9.12;84.56
69084;SHT31;56185;48.526;9.044;2023-03-19T05:21:59;9.19;84.53
69084;SHT31;56185;48.526;9.044;2023-03-19T05:24:24;9.25;84.34
69084;SHT31;56185;48.526;9.044;2023-03-19T05:26:50;9.15;84.85
69084;SHT31;56185;48.526;9.044;2023-03-19T05:29:15;9.11;85.17
69084;SHT31;56185;48.526;9.044;2023-03-19T05:31:40;9.18;84.57
69084;SHT31;56185;48.526;9.044;2023-03-19T05:34:06;9.18;84.41
69084;SHT31;56185;48.526;9.044;2023-03-19T05:36:31;9.21;84.49
69084;SHT31;56185;48.526;9.044;2023-03-19T05:38:56;9.05;85.18
69084;SHT31;56185;48.526;9.044;2023-03-19T05:41:22;9.23;84.59
69084;SHT31;56185;48.526;9.044;2023-03-19T05:43:47;9.29;84.57
69084;SHT31;56185;48.526;9.044;2023-03-19T05:46:12;9.35;84.40
69084;SHT31;56185;48.526;9.044;2023-03-19T05:48:38;9.12;84.18
69084;SHT31;56185;48.526;9.044;2023-03-19T05:51:03;9.22;84.63
69084;SHT31;56185;48.526;9.044;2023-03-19T05:53:29;9.28;84.07
69084;SHT31;56185;48.526;9.044;2023-03-19T05:55:54;9.29;83.82
69084;SHT31;56185;48.526;9.044;2023-03-19T05:58:19;9.42;83.29
69084;SHT31;56185;48.526;9.044;2023-03-19T06:00:45;9.44;83.50
69084;SHT31;56185;48.526;9.044;2023-03-19T06:03:10;9.23;84.78
69084;SHT31;56185;48.526;9.044;2023-03-19T06:05:35;9.25;84.32
69084;SHT31;56185;48.526;9.044;2023-03-19T06:08:01;9.40;83.33
69084;SHT31;56185;48.526;9.044;2023-03-19T06:10:26;9.29;84.32
69084;SHT31;56185;48.526;9.044;2023-03-19T06:12:51;9.14;85.38
69084;SHT31;56185;48.526;9.044;2023-03-19T06:15:17;9.16;84.94
69084;SHT31;56185;48.526;9.044;2023-03-19T06:17:42;9.11;85.60
69084;SHT31;56185;48.526;9.044;2023-03-19T06:20:08;9.15;85.09
69084;SHT31;56185;48.526;9.044;2023-03-19T06:22:33;9.22;84.53
69084;SHT31;56185;48.526;9.044;2023-03-19T06:24:58;9.28;84.66
69084;SHT31;56185;48.526;9.044;2023-03-19T06:27:24;9.21;84.44
69084;SHT31;56185;48.526;9.044;2023-03-19T06:29:49;9.38;84.51
69084;SHT31;56185;48.526;9.044;2023-03-19T06:32:14;9.31;84.71
69084;SHT31;56185;48.526;9.044;2023-03-19T06:34:39;9.33;85.09
69084;SHT31;56185;48.526;9.044;2023-03-19T06:37:05;9.38;84.12
69084;SHT31;56185;48.526;9.044;2023-03-19T06:39:30;9.29;85.39
69084;SHT31;56185;48.526;9.044;2023-03-19T06:41:55;9.60;84.78
69084;SHT31;56185;48.526;9.044;2023-03-19T06:44:20;9.69;84.57
69084;SHT31;56185;48.526;9.044;2023-03-19T06:46:46;9.69;84.78
69084;SHT31;56185;48.526;9.044;2023-03-19T06:49:11;9.46;85.58
69084;SHT31;56185;48.526;9.044;2023-03-19T06:51:36;9.44;85.78
69084;SHT31;56185;48.526;9.044;2023-03-19T06:54:01;9.46;85.73
69084;SHT31;56185;48.526;9.044;2023-03-19T06:56:27;9.53;85.69
69084;SHT31;56185;48.526;9.044;2023-03-19T06:58:52;9.66;85.05
69084;SHT31;56185;48.526;9.044;2023-03-19T07:01:17;9.72;84.95
69084;SHT31;56185;48.526;9.044;2023-03-19T07:03:43;9.74;85.05
69084;SHT31;56185;48.526;9.044;2023-03-19T07:06:08;9.69;84.60
69084;SHT31;56185;48.526;9.044;2023-03-19T07:08:33;9.74;85.11
69084;SHT31;56185;48.526;9.044;2023-03-19T07:11:06;9.76;84.41
69084;SHT31;56185;48.526;9.044;2023-03-19T07:13:32;9.72;84.82
69084;SHT31;56185;48.526;9.044;2023-03-19T07:15:58;9.79;84.37
69084;SHT31;56185;48.526;9.044;2023-03-19T07:18:24;9.76;84.62
69084;SHT31;56185;48.526;9.044;2023-03-19T07:20:49;9.83;84.26
69084;SHT31;56185;48.526;9.044;2023-03-19T07:23:14;9.80;84.51
69084;SHT31;56185;48.526;9.044;2023-03-19T07:25:40;9.86;84.25
69084;SHT31;56185;48.526;9.044;2023-03-19T07:28:05;9.81;83.65
69084;SHT31;56185;48.526;9.044;2023-03-19T07:30:31;9.91;83.61
69084;SHT31;56185;48.526;9.044;2023-03-19T07:32:56;10.01;83.17
69084;SHT31;56185;48.526;9.044;2023-03-19T07:35:22;10.01;83.11
69084;SHT31;56185;48.526;9.044;2023-03-19T07:37:47;10.11;83.03
69084;SHT31;56185;48.526;9.044;2023-03-19T07:40:12;10.21;83.26
69084;SHT31;56185;48.526;9.044;2023-03-19T07:42:38;10.28;83.38
69084;SHT31;56185;48.526;9.044;2023-03-19T07:45:04;10.25;83.28
69084;SHT31;56185;48.526;9.044;2023-03-19T07:47:29;10.41;81.96
69084;SHT31;56185;48.526;9.044;2023-03-19T07:49:55;10.48;83.66
69084;SHT31;56185;48.526;9.044;2023-03-19T07:52:21;10.45;82.32
69084;SHT31;56185;48.526;9.044;2023-03-19T07:54:46;10.51;82.38
69084;SHT31;56185;48.526;9.044;2023-03-19T07:57:11;10.53;82.16
69084;SHT31;56185;48.526;9.044;2023-03-19T07:59:36;10.61;82.22
69084;SHT31;56185;48.526;9.044;2023-03-19T08:02:02;10.62;81.99
69084;SHT31;56185;48.526;9.044;2023-03-19T08:04:27;10.62;83.59
69084;SHT31;56185;48.526;9.044;2023-03-19T08:06:52;10.62;83.17
69084;SHT31;56185;48.526;9.044;2023-03-19T08:09:17;10.68;82.14
69084;SHT31;56185;48.526;9.044;2023-03-19T08:11:43;10.75;83.10
69084;SHT31;56185;48.526;9.044;2023-03-19T08:14:08;10.73;83.43
69084;SHT31;56185;48.526;9.044;2023-03-19T08:16:33;10.83;83.19
69084;SHT31;56185;48.526;9.044;2023-03-19T08:18:59;10.88;82.00
69084;SHT31;56185;48.526;9.044;2023-03-19T08:21:24;10.92;82.23
69084;SHT31;56185;48.526;9.044;2023-03-19T08:23:49;10.92;82.17
69084;SHT31;56185;48.526;9.044;2023-03-19T08:26:14;10.95;82.67
69084;SHT31;56185;48.526;9.044;2023-03-19T08:28:40;11.01;82.45
69084;SHT31;56185;48.526;9.044;2023-03-19T08:31:07;11.10;82.05
69084;SHT31;56185;48.526;9.044;2023-03-19T08:33:33;11.13;81.89
69084;SHT31;56185;48.526;9.044;2023-03-19T08:36:09;11.19;81.30
69084;SHT31;56185;48.526;9.044;2023-03-19T08:38:35;11.20;80.57
69084;SHT31;56185;48.526;9.044;2023-03-19T08:41:00;11.30;80.77
69084;SHT31;56185;48.526;9.044;2023-03-19T08:43:25;11.16;79.88
69084;SHT31;56185;48.526;9.044;2023-03-19T08:45:51;11.34;79.36
69084;SHT31;56185;48.526;9.044;2023-03-19T08:48:16;11.35;79.11
69084;SHT31;56185;48.526;9.044;2023-03-19T08:50:41;11.45;80.00
69084;SHT31;56185;48.526;9.044;2023-03-19T08:53:06;11.50;80.29
69084;SHT31;56185;48.526;9.044;2023-03-19T08:55:32;11.58;78.62
69084;SHT31;56185;48.526;9.044;2023-03-19T08:57:57;11.74;77.70
69084;SHT31;56185;48.526;9.044;2023-03-19T09:00:22;11.82;77.52
69084;SHT31;56185;48.526;9.044;2023-03-19T09:02:48;12.00;77.80
69084;SHT31;56185;48.526;9.044;2023-03-19T09:05:13;12.09;77.08
69084;SHT31;56185;48.526;9.044;2023-03-19T09:07:38;12.23;76.06
69084;SHT31;56185;48.526;9.044;2023-03-19T09:10:04;12.44;75.68
69084;SHT31;56185;48.526;9.044;2023-03-19T09:12:30;12.61;75.38
69084;SHT31;56185;48.526;9.044;2023-03-19T09:14:55;12.78;75.20
69084;SHT31;56185;48.526;9.044;2023-03-19T09:17:20;12.91;74.23
69084;SHT31;56185;48.526;9.044;2023-03-19T09:19:45;13.02;73.33
69084;SHT31;56185;48.526;9.044;2023-03-19T09:22:11;13.08;74.25
69084;SHT31;56185;48.526;9.044;2023-03-19T09:24:36;13.15;73.89
69084;SHT31;56185;48.526;9.044;2023-03-19T09:27:01;13.20;74.35
69084;SHT31;56185;48.526;9.044;2023-03-19T09:29:26;13.16;75.25
69084;SHT31;56185;48.526;9.044;2023-03-19T09:31:52;13.23;75.05
69084;SHT31;56185;48.526;9.044;2023-03-19T09:34:17;13.46;73.55
69084;SHT31;56185;48.526;9.044;2023-03-19T09:36:42;13.50;73.22
69084;SHT31;56185;48.526;9.044;2023-03-19T09:39:08;13.71;70.29
69084;SHT31;56185;48.526;9.044;2023-03-19T09:44:38;13.96;67.63
69084;SHT31;56185;48.526;9.044;2023-03-19T09:47:32;14.17;68.14
69084;SHT31;56185;48.526;9.044;2023-03-19T09:50:00;14.26;68.00
69084;SHT31;56185;48.526;9.044;2023-03-19T09:57:37;14.38;66.48
69084;SHT31;56185;48.526;9.044;2023-03-19T10:00:18;14.36;62.55
69084;SHT31;56185;48.526;9.044;2023-03-19T10:02:45;14.58;64.78
69084;SHT31;56185;48.526;9.044;2023-03-19T10:13:17;14.89;59.34
69084;SHT31;56185;48.526;9.044;2023-03-19T10:15:46;15.07;60.58
69084;SHT31;56185;48.526;9.044;2023-03-19T10:18:19;15.14;56.68
69084;SHT31;56185;48.526;9.044;2023-03-19T10:20:57;15.37;57.02
69084;SHT31;56185;48.526;9.044;2023-03-19T10:23:33;15.51;55.70
69084;SHT31;56185;48.526;9.044;2023-03-19T10:26:03;15.52;53.08
69084;SHT31;56185;48.526;9.044;2023-03-19T11:20:17;16.46;51.24
69084;SHT31;56185;48.526;9.044;2023-03-19T11:22:43;16.61;50.64
69084;SHT31;56185;48.526;9.044;2023-03-19T11:25:16;16.72;49.37
69084;SHT31;56185;48.526;9.044;2023-03-19T11:27:42;16.92;48.21
69084;SHT31;56185;48.526;9.044;2023-03-19T11:30:17;16.84;47.88
69084;SHT31;56185;48.526;9.044;2023-03-19T11:41:22;17.47;47.91
69084;SHT31;56185;48.526;9.044;2023-03-19T11:44:14;17.84;46.15
69084;SHT31;56185;48.526;9.044;2023-03-19T11:52:19;17.56;45.86
69084;SHT31;56185;48.526;9.044;2023-03-19T11:55:04;17.38;46.43
69084;SHT31;56185;48.526;9.044;2023-03-19T12:05:57;17.12;47.37
69084;SHT31;56185;48.526;9.044;2023-03-19T12:08:48;17.12;47.82
69084;SHT31;56185;48.526;9.044;2023-03-19T12:11:36;17.00;47.31
69084;SHT31;56185;48.526;9.044;2023-03-19T12:14:39;17.04;46.99
69084;SHT31;56185;48.526;9.044;2023-03-19T12:17:39;17.15;47.94
69084;SHT31;56185;48.526;9.044;2023-03-19T12:27:53;17.14;47.41
69084;SHT31;56185;48.526;9.044;2023-03-19T12:32:55;17.08;47.73
69084;SHT31;56185;48.526;9.044;2023-03-19T12:35:35;17.02;47.76
69084;SHT31;56185;48.526;9.044;2023-03-19T12:41:09;16.96;48.30
69084;SHT31;56185;48.526;9.044;2023-03-19T12:46:15;17.14;48.33
69084;SHT31;56185;48.526;9.044;2023-03-19T12:48:52;17.14;47.78
69084;SHT31;56185;48.526;9.044;2023-03-19T12:51:25;17.09;47.99
69084;SHT31;56185;48.526;9.044;2023-03-19T12:53:58;17.29;48.18
69084;SHT31;56185;48.526;9.044;2023-03-19T12:56:37;17.42;47.29
69084;SHT31;56185;48.526;9.044;2023-03-19T12:59:23;17.43;46.88
69084;SHT31;56185;48.526;9.044;2023-03-19T13:02:02;17.52;46.14
69084;SHT31;56185;48.526;9.044;2023-03-19T13:04:33;17.56;47.28
69084;SHT31;56185;48.526;9.044;2023-03-19T13:07:12;17.62;46.53
69084;SHT31;56185;48.526;9.044;2023-03-19T13:10:02;17.52;46.51
69084;SHT31;56185;48.526;9.044;2023-03-19T13:12:31;17.53;46.56
69084;SHT31;56185;48.526;9.044;2023-03-19T13:19:55;17.28;46.88
69084;SHT31;56185;48.526;9.044;2023-03-19T13:22:22;17.19;46.64
69084;SHT31;56185;48.526;9.044;2023-03-19T13:24:50;17.16;46.82
69084;SHT31;56185;48.526;9.044;2023-03-19T13:27:42;17.21;47.50
69084;SHT31;56185;48.526;9.044;2023-03-19T13:32:39;17.28;47.46
69084;SHT31;56185;48.526;9.044;2023-03-19T13:37:55;17.32;47.48
69084;SHT31;56185;48.526;9.044;2023-03-19T13:40:41;17.18;47.88
69084;SHT31;56185;48.526;9.044;2023-03-19T13:48:36;16.95;47.81
69084;SHT31;56185;48.526;9.044;2023-03-19T13:51:23;16.88;47.81
69084;SHT31;56185;48.526;9.044;2023-03-19T13:54:06;16.74;48.61
69084;SHT31;56185;48.526;9.044;2023-03-19T13:56:31;16.78;49.86
69084;SHT31;56185;48.526;9.044;2023-03-19T13:59:30;16.60;49.47
69084;SHT31;56185;48.526;9.044;2023-03-19T14:01:56;16.41;49.55
69084;SHT31;56185;48.526;9.044;2023-03-19T14:06:55;16.53;51.39
69084;SHT31;56185;48.526;9.044;2023-03-19T14:09:37;16.51;50.83
69084;SHT31;56185;48.526;9.044;2023-03-19T14:14:49;16.49;52.08
69084;SHT31;56185;48.526;9.044;2023-03-19T14:17:19;16.27;51.32
69084;SHT31;56185;48.526;9.044;2023-03-19T14:19:46;15.78;53.01
69084;SHT31;56185;48.526;9.044;2023-03-19T14:22:33;15.64;52.89
69084;SHT31;56185;48.526;9.044;2023-03-19T14:25:18;15.54;53.01
69084;SHT31;56185;48.526;9.044;2023-03-19T14:27:46;15.47;53.39
69084;SHT31;56185;48.526;9.044;2023-03-19T14:30:43;15.47;52.87
69084;SHT31;56185;48.526;9.044;2023-03-19T14:33:18;15.52;52.57
69084;SHT31;56185;48.526;9.044;2023-03-19T14:35:47;15.43;52.16
69084;SHT31;56185;48.526;9.044;2023-03-19T14:38:33;15.31;53.52
69084;SHT31;56185;48.526;9.044;2023-03-19T14:41:01;15.35;53.58
69084;SHT31;56185;48.526;9.044;2023-03-19T14:44:18;15.22;53.14
69084;SHT31;56185;48.526;9.044;2023-03-19T14:49:44;15.04;54.68
69084;SHT31;56185;48.526;9.044;2023-03-19T14:52:15;15.08;54.23
69084;SHT31;56185;48.526;9.044;2023-03-19T14:57:20;15.17;55.56
69084;SHT31;56185;48.526;9.044;2023-03-19T14:59:49;15.20;55.80
69084;SHT31;56185;48.526;9.044;2023-03-19T15:05:03;14.94;57.34
69084;SHT31;56185;48.526;9.044;2023-03-19T15:07:33;14.92;58.55
69084;SHT31;56185;48.526;9.044;2023-03-19T15:10:01;14.87;57.76
69084;SHT31;56185;48.526;9.044;2023-03-19T15:13:00;14.79;58.61
69084;SHT31;56185;48.526;9.044;2023-03-19T15:16:01;14.80;58.71
69084;SHT31;56185;48.526;9.044;2023-03-19T15:18:28;14.89;58.79
69084;SHT31;56185;48.526;9.044;2023-03-19T15:20:54;15.03;58.45
69084;SHT31;56185;48.526;9.044;2023-03-19T15:23:23;15.14;58.47
69084;SHT31;56185;48.526;9.044;2023-03-19T15:25:59;15.13;58.48
69084;SHT31;56185;48.526;9.044;2023-03-19T15:28:26;15.23;58.27
69084;SHT31;56185;48.526;9.044;2023-03-19T15:31:00;15.26;58.20
69084;SHT31;56185;48.526;9.044;2023-03-19T15:33:37;15.23;58.22
69084;SHT31;56185;48.526;9.044;2023-03-19T15:36:13;15.04;58.32
69084;SHT31;56185;48.526;9.044;2023-03-19T15:41:12;15.13;58.91
69084;SHT31;56185;48.526;9.044;2023-03-19T15:43:39;15.08;58.51
69084;SHT31;56185;48.526;9.044;2023-03-19T15:46:14;15.24;56.96
69084;SHT31;56185;48.526;9.044;2023-03-19T15:48:50;15.54;56.88
69084;SHT31;56185;48.526;9.044;2023-03-19T15:51:18;15.59;55.40
69084;SHT31;56185;48.526;9.044;2023-03-19T15:53:46;15.75;55.84
69084;SHT31;56185;48.526;9.044;2023-03-19T15:56:13;15.99;54.96
69084;SHT31;56185;48.526;9.044;2023-03-19T15:58:43;15.98;54.71
69084;SHT31;56185;48.526;9.044;2023-03-19T16:01:10;15.96;55.22
69084;SHT31;56185;48.526;9.044;2023-03-19T16:03:39;15.82;54.31
69084;SHT31;56185;48.526;9.044;2023-03-19T16:06:12;15.64;55.31
69084;SHT31;56185;48.526;9.044;2023-03-19T16:08:45;15.58;55.13
69084;SHT31;56185;48.526;9.044;2023-03-19T16:11:23;15.57;55.70
69084;SHT31;56185;48.526;9.044;2023-03-19T16:14:08;15.47;55.89
69084;SHT31;56185;48.526;9.044;2023-03-19T16:16:34;15.33;56.04
69084;SHT31;56185;48.526;9.044;2023-03-19T16:19:00;15.31;55.99
69084;SHT31;56185;48.526;9.044;2023-03-19T16:24:00;15.27;56.51
69084;SHT31;56185;48.526;9.044;2023-03-19T16:26:35;15.02;57.28
69084;SHT31;56185;48.526;9.044;2023-03-19T16:29:06;15.11;58.16
69084;SHT31;56185;48.526;9.044;2023-03-19T16:31:43;15.07;57.37
69084;SHT31;56185;48.526;9.044;2023-03-19T16:34:30;15.19;57.08
69084;SHT31;56185;48.526;9.044;2023-03-19T16:36:59;15.19;54.96
69084;SHT31;56185;48.526;9.044;2023-03-19T16:39:34;15.17;54.65
69084;SHT31;56185;48.526;9.044;2023-03-19T16:42:29;15.23;54.79
69084;SHT31;56185;48.526;9.044;2023-03-19T16:45:08;15.27;55.04
69084;SHT31;56185;48.526;9.044;2023-03-19T16:47:48;15.24;55.03
69084;SHT31;56185;48.526;9.044;2023-03-19T16:50:14;15.08;55.26
69084;SHT31;56185;48.526;9.044;2023-03-19T16:52:41;14.93;54.93
69084;SHT31;56185;48.526;9.044;2023-03-19T16:55:18;14.99;55.19
69084;SHT31;56185;48.526;9.044;2023-03-19T16:57:44;14.93;55.94
69084;SHT31;56185;48.526;9.044;2023-03-19T17:00:15;14.85;56.00
69084;SHT31;56185;48.526;9.044;2023-03-19T17:02:40;14.80;56.33
69084;SHT31;56185;48.526;9.044;2023-03-19T17:05:15;14.87;56.41
69084;SHT31;56185;48.526;9.044;2023-03-19T17:07:41;14.82;56.13
69084;SHT31;56185;48.526;9.044;2023-03-19T17:10:12;14.77;56.65
69084;SHT31;56185;48.526;9.044;2023-03-19T17:12:38;14.56;57.33
69084;SHT31;56185;48.526;9.044;2023-03-19T17:15:04;14.61;57.49
69084;SHT31;56185;48.526;9.044;2023-03-19T17:17:29;14.65;57.67
69084;SHT31;56185;48.526;9.044;2023-03-19T17:19:55;14.72;57.80
69084;SHT31;56185;48.526;9.044;2023-03-19T17:22:20;14.65;57.58
69084;SHT31;56185;48.526;9.044;2023-03-19T17:24:45;14.49;58.10
69084;SHT31;56185;48.526;9.044;2023-03-19T17:27:10;14.49;58.41
69084;SHT31;56185;48.526;9.044;2023-03-19T17:29:53;14.35;58.77
69084;SHT31;56185;48.526;9.044;2023-03-19T18:01:54;13.84;64.07
69084;SHT31;56185;48.526;9.044;2023-03-19T18:04:55;13.83;64.30
69084;SHT31;56185;48.526;9.044;2023-03-19T18:19:50;13.65;66.05
69084;SHT31;56185;48.526;9.044;2023-03-19T18:22:17;13.76;65.47
69084;SHT31;56185;48.526;9.044;2023-03-19T18:24:43;13.56;66.07
69084;SHT31;56185;48.526;9.044;2023-03-19T18:27:09;13.55;66.44
69084;SHT31;56185;48.526;9.044;2023-03-19T18:29:34;13.65;66.39
69084;SHT31;56185;48.526;9.044;2023-03-19T18:32:06;13.52;66.69
69084;SHT31;56185;48.526;9.044;2023-03-19T18:34:34;13.53;66.74
69084;SHT31;56185;48.526;9.044;2023-03-19T18:36:59;13.56;66.80
69084;SHT31;56185;48.526;9.044;2023-03-19T18:39:24;13.49;67.01
69084;SHT31;56185;48.526;9.044;2023-03-19T18:41:50;13.59;66.84
69084;SHT31;56185;48.526;9.044;2023-03-19T18:44:15;13.56;66.73
69084;SHT31;56185;48.526;9.044;2023-03-19T18:46:40;13.71;66.37
69084;SHT31;56185;48.526;9.044;2023-03-19T18:49:22;13.65;67.17
69084;SHT31;56185;48.526;9.044;2023-03-19T18:51:49;13.66;67.11
69084;SHT31;56185;48.526;9.044;2023-03-19T18:54:14;13.73;67.81
69084;SHT31;56185;48.526;9.044;2023-03-19T18:56:40;13.59;67.95
69084;SHT31;56185;48.526;9.044;2023-03-19T18:59:10;13.42;67.00
69084;SHT31;56185;48.526;9.044;2023-03-19T19:01:35;13.40;67.01
69084;SHT31;56185;48.526;9.044;2023-03-19T19:04:01;13.19;67.48